createdAt,value
2019-04-04T00:00:51.174Z,4.23
2019-04-04T00:03:22.873Z,6.20
2019-04-04T00:05:55.125Z,6.37
2019-04-04T00:08:30.945Z,5.40
2019-04-04T00:11:01.816Z,7.67
2019-04-04T00:13:33.959Z,6.53
2019-04-04T00:16:05.932Z,4.93
2019-04-04T00:18:37.753Z,7.67
2019-04-04T00:21:10.119Z,5.70
2019-04-04T00:23:41.830Z,6.67
2019-04-04T00:26:13.722Z,5.63
2019-04-04T00:28:46.078Z,7.97
2019-04-04T00:31:19.596Z,5.50
2019-04-04T00:33:51.675Z,3.77
2019-04-04T00:36:23.753Z,8.13
2019-04-04T00:38:55.809Z,6.80
2019-04-04T00:41:27.570Z,7.97
2019-04-04T00:43:59.282Z,6.37
2019-04-04T00:46:31.504Z,7.33
2019-04-04T00:49:04.936Z,6.73
2019-04-04T00:51:38.817Z,7.37
2019-04-04T00:54:12.102Z,11.00
2019-04-04T00:56:43.945Z,4.73
2019-04-04T00:59:16.878Z,5.70
2019-04-04T01:01:49.267Z,11.00
2019-04-04T01:04:21.078Z,11.00
2019-04-04T01:06:52.830Z,9.77
2019-04-04T01:09:24.601Z,6.83
2019-04-04T01:11:56.713Z,6.87
2019-04-04T01:14:29.190Z,7.77
2019-04-04T01:17:02.068Z,7.57
2019-04-04T01:19:35.337Z,7.23
2019-04-04T01:22:07.105Z,8.30
2019-04-04T01:24:39.131Z,8.03
2019-04-04T01:27:10.879Z,6.57
2019-04-04T01:29:42.656Z,4.97
2019-04-04T01:32:15.144Z,8.27
2019-04-04T01:34:48.013Z,7.83
2019-04-04T01:37:19.715Z,5.63
2019-04-04T01:39:51.565Z,5.53
2019-04-04T01:42:23.436Z,6.03
2019-04-04T01:47:25.427Z,5.12
2019-04-04T01:49:57.288Z,3.10
2019-04-04T01:52:29.126Z,6.97
2019-04-04T01:55:02.958Z,9.70
2019-04-04T01:57:34.383Z,4.97
2019-04-04T02:00:07.958Z,7.17
2019-04-04T02:02:40.013Z,8.53
2019-04-04T02:05:11.783Z,7.37
2019-04-04T02:07:43.885Z,7.67
2019-04-04T02:10:17.151Z,4.37
2019-04-04T02:12:48.954Z,4.93
2019-04-04T02:15:20.661Z,7.73
2019-04-04T02:17:52.992Z,5.43
2019-04-04T02:20:26.987Z,7.80
2019-04-04T02:23:01.187Z,5.40
2019-04-04T02:25:35.965Z,8.30
2019-04-04T02:28:08.883Z,4.93
2019-04-04T02:30:49.937Z,4.53
2019-04-04T02:33:21.780Z,4.67
2019-04-04T02:35:53.473Z,4.83
2019-04-04T02:38:28.004Z,6.63
2019-04-04T02:40:59.070Z,6.07
2019-04-04T02:43:31.273Z,3.67
2019-04-04T02:46:03.306Z,4.97
2019-04-04T02:48:35.167Z,4.20
2019-04-04T02:51:08.094Z,3.53
2019-04-04T02:53:40.387Z,6.13
2019-04-04T02:56:12.099Z,6.27
2019-04-04T02:58:46.473Z,7.53
2019-04-04T03:01:17.599Z,5.07
2019-04-04T03:03:49.644Z,3.20
2019-04-04T03:06:24.516Z,7.27
2019-04-04T03:08:55.046Z,6.23
2019-04-04T03:11:26.978Z,6.00
2019-04-04T03:14:03.301Z,5.87
2019-04-04T03:16:32.363Z,4.67
2019-04-04T03:19:04.474Z,7.13
2019-04-04T03:21:36.571Z,4.27
2019-04-04T03:24:08.387Z,6.63
2019-04-04T03:26:40.343Z,5.90
2019-04-04T03:29:12.111Z,5.63
2019-04-04T03:31:44.601Z,7.40
2019-04-04T03:34:16.540Z,7.53
2019-04-04T03:36:48.207Z,4.60
2019-04-04T03:39:20.549Z,5.70
2019-04-04T03:41:52.700Z,5.87
2019-04-04T03:44:24.484Z,5.10
2019-04-04T03:46:56.587Z,6.17
2019-04-04T03:49:28.674Z,5.60
2019-04-04T03:52:00.334Z,4.30
2019-04-04T03:54:32.156Z,4.70
2019-04-04T03:57:03.758Z,6.03
2019-04-04T03:59:36.007Z,6.93
2019-04-04T04:02:07.734Z,5.03
2019-04-04T04:04:39.974Z,4.87
2019-04-04T04:07:14.225Z,4.30
2019-04-04T04:09:45.767Z,4.77
2019-04-04T04:12:17.524Z,7.70
2019-04-04T04:14:53.783Z,4.63
2019-04-04T04:17:22.579Z,3.47
2019-04-04T04:19:54.382Z,4.53
2019-04-04T04:22:26.032Z,4.90
2019-04-04T04:25:02.179Z,4.63
2019-04-04T04:27:31.427Z,4.63
2019-04-04T04:30:07.271Z,6.57
2019-04-04T04:32:37.718Z,3.07
2019-04-04T04:35:10.794Z,6.07
2019-04-04T04:37:42.956Z,4.90
2019-04-04T04:40:15.419Z,4.80
2019-04-04T04:42:47.611Z,6.37
2019-04-04T04:45:19.285Z,4.40
2019-04-04T04:47:51.021Z,3.20
2019-04-04T04:50:22.711Z,10.60
2019-04-04T04:52:54.604Z,6.17
2019-04-04T04:55:27.345Z,4.30
2019-04-04T04:57:59.885Z,3.57
2019-04-04T05:00:32.071Z,4.33
2019-04-04T05:03:03.792Z,3.30
2019-04-04T05:05:35.786Z,3.77
2019-04-04T05:08:10.118Z,5.00
2019-04-04T05:10:41.764Z,8.90
2019-04-04T05:13:13.569Z,8.63
2019-04-04T05:15:46.871Z,8.07
2019-04-04T05:18:18.563Z,10.07
2019-04-04T05:20:50.314Z,10.13
2019-04-04T05:23:22.131Z,9.53
2019-04-04T05:25:54.481Z,5.37
2019-04-04T05:28:26.505Z,8.77
2019-04-04T05:30:58.254Z,7.03
2019-04-04T05:33:31.547Z,9.70
2019-04-04T05:36:05.247Z,11.63
2019-04-04T05:38:37.348Z,11.77
2019-04-04T05:41:09.341Z,14.20
2019-04-04T05:43:41.158Z,20.50
2019-04-04T05:46:12.958Z,18.07
2019-04-04T05:48:54.002Z,15.33
2019-04-04T05:51:25.948Z,12.50
2019-04-04T05:53:57.981Z,17.77
2019-04-04T05:56:34.969Z,13.93
2019-04-04T05:59:06.695Z,13.13
2019-04-04T06:01:38.352Z,11.40
2019-04-04T06:04:10.240Z,8.77
2019-04-04T06:06:42.496Z,11.43
2019-04-04T06:09:14.868Z,10.20
2019-04-04T06:11:48.640Z,13.87
2019-04-04T06:14:29.926Z,19.27
2019-04-04T06:16:55.247Z,11.53
2019-04-04T06:19:30.122Z,11.83
2019-04-04T06:22:02.509Z,11.97
2019-04-04T06:24:34.058Z,8.20
2019-04-04T06:27:07.105Z,9.33
2019-04-04T06:29:40.111Z,9.87
2019-04-04T06:32:11.792Z,12.43
2019-04-04T06:34:44.319Z,22.97
2019-04-04T06:37:18.037Z,9.87
2019-04-04T06:39:50.521Z,8.77
2019-04-04T06:42:24.282Z,12.00
2019-04-04T06:44:56.169Z,6.20
2019-04-04T06:47:27.917Z,9.23
2019-04-04T06:49:59.672Z,11.63
2019-04-04T06:52:31.358Z,7.77
2019-04-04T06:55:03.182Z,8.30
2019-04-04T06:57:36.551Z,9.83
2019-04-04T07:00:15.371Z,5.40
2019-04-04T07:02:47.351Z,9.57
2019-04-04T07:05:19.725Z,11.97
2019-04-04T07:07:51.448Z,8.50
2019-04-04T07:10:23.273Z,10.20
2019-04-04T07:13:06.239Z,11.30
2019-04-04T07:15:28.709Z,8.67
2019-04-04T07:18:03.311Z,12.20
2019-04-04T07:20:35.504Z,6.53
2019-04-04T07:23:07.176Z,11.27
2019-04-04T07:25:39.792Z,12.77
2019-04-04T07:28:12.783Z,11.03
2019-04-04T07:30:44.929Z,9.70
2019-04-04T07:33:16.411Z,10.30
2019-04-04T07:35:48.914Z,18.40
2019-04-04T07:38:21.503Z,12.53
2019-04-04T07:40:53.186Z,11.53
2019-04-04T07:43:24.929Z,14.67
2019-04-04T07:46:15.339Z,18.57
2019-04-04T07:48:35.492Z,15.63
2019-04-04T07:51:07.376Z,13.97
2019-04-04T07:53:39.346Z,15.37
2019-04-04T07:56:12.157Z,19.83
2019-04-04T07:58:47.953Z,19.47
2019-04-04T08:01:19.631Z,18.60
2019-04-04T08:03:51.324Z,20.87
2019-04-04T08:06:23.527Z,18.00
2019-04-04T08:08:55.613Z,22.03
2019-04-04T08:11:27.326Z,22.77
2019-04-04T08:13:59.046Z,26.33
2019-04-04T08:16:31.122Z,21.93
2019-04-04T08:19:02.844Z,21.23
2019-04-04T08:21:34.599Z,21.70
2019-04-04T08:24:06.391Z,26.43
2019-04-04T08:26:38.202Z,22.77
2019-04-04T08:29:10.154Z,25.00
2019-04-04T08:31:42.075Z,25.63
2019-04-04T08:34:14.033Z,28.20
2019-04-04T08:36:45.886Z,22.57
2019-04-04T08:39:17.547Z,18.27
2019-04-04T08:41:52.230Z,19.03
2019-04-04T08:44:22.907Z,21.30
2019-04-04T08:46:55.709Z,17.80
2019-04-04T08:49:27.973Z,21.07
2019-04-04T08:52:00.351Z,18.80
2019-04-04T08:54:32.368Z,17.30
2019-04-04T08:57:04.529Z,21.10
2019-04-04T08:59:40.887Z,21.07
2019-04-04T09:02:26.813Z,16.33
2019-04-04T09:05:11.201Z,20.43
2019-04-04T09:07:32.998Z,24.77
2019-04-04T09:10:06.613Z,18.27
2019-04-04T09:12:38.302Z,18.03
2019-04-04T09:15:09.995Z,21.07
2019-04-04T09:17:42.259Z,17.70
2019-04-04T09:20:14.255Z,16.90
2019-04-04T09:22:46.004Z,19.73
2019-04-04T09:25:17.647Z,13.70
2019-04-04T09:27:49.570Z,15.30
2019-04-04T09:30:21.887Z,13.93
2019-04-04T09:32:53.644Z,18.57
2019-04-04T09:35:25.380Z,16.10
2019-04-04T09:37:57.585Z,20.03
2019-04-04T09:40:29.540Z,16.97
2019-04-04T09:43:01.269Z,18.10
2019-04-04T09:45:32.983Z,18.90
2019-04-04T09:48:05.083Z,18.10
2019-04-04T09:50:37.175Z,20.37
2019-04-04T09:53:09.003Z,18.83
2019-04-04T09:55:41.302Z,15.80
2019-04-04T09:58:13.345Z,20.43
2019-04-04T10:00:45.677Z,18.30
2019-04-04T10:03:17.526Z,20.53
2019-04-04T10:05:49.315Z,19.70
2019-04-04T10:08:21.090Z,20.03
2019-04-04T10:10:53.493Z,17.17
2019-04-04T10:13:25.150Z,19.20
2019-04-04T10:15:56.936Z,17.07
2019-04-04T10:18:28.577Z,16.80
2019-04-04T10:21:11.129Z,18.57
2019-04-04T10:23:36.779Z,20.57
2019-04-04T10:26:11.637Z,17.80
2019-04-04T10:28:43.889Z,17.77
2019-04-04T10:31:15.824Z,18.90
2019-04-04T10:33:47.407Z,18.77
2019-04-04T10:36:19.346Z,15.37
2019-04-04T10:38:51.470Z,16.00
2019-04-04T10:41:23.450Z,14.40
2019-04-04T10:43:55.212Z,14.43
2019-04-04T10:46:27.538Z,15.50
2019-04-04T10:49:04.875Z,16.73
2019-04-04T10:51:36.944Z,15.87
2019-04-04T10:54:09.287Z,14.83
2019-04-04T10:56:41.805Z,16.37
2019-04-04T10:59:13.967Z,15.60
2019-04-04T11:01:45.852Z,15.63
2019-04-04T11:04:17.898Z,15.33
2019-04-04T11:06:49.922Z,15.07
2019-04-04T11:09:22.206Z,17.47
2019-04-04T11:11:53.905Z,15.10
2019-04-04T11:14:25.752Z,14.17
2019-04-04T11:16:57.578Z,12.33
2019-04-04T11:19:32.332Z,12.27
2019-04-04T11:22:06.565Z,12.47
2019-04-04T11:24:38.360Z,10.37
2019-04-04T11:27:10.243Z,13.57
2019-04-04T11:29:42.331Z,8.87
2019-04-04T11:32:18.378Z,10.07
2019-04-04T11:34:53.645Z,10.13
2019-04-04T11:37:25.439Z,7.70
2019-04-04T11:39:57.260Z,9.57
2019-04-04T11:42:40.947Z,8.53
2019-04-04T11:45:13.263Z,6.40
2019-04-04T11:47:45.109Z,8.33
2019-04-04T11:50:17.436Z,6.93
2019-04-04T11:52:49.679Z,6.60
2019-04-04T11:55:21.469Z,10.57
2019-04-04T11:57:54.479Z,7.13
2019-04-04T12:00:29.617Z,10.13
2019-04-04T12:03:01.780Z,6.63
2019-04-04T12:05:34.481Z,5.97
2019-04-04T12:08:07.598Z,5.33
2019-04-04T12:10:41.194Z,4.37
2019-04-04T12:13:13.170Z,4.73
2019-04-04T12:15:50.362Z,7.70
2019-04-04T12:18:22.211Z,7.13
2019-04-04T12:20:54.214Z,6.80
2019-04-04T12:23:26.199Z,6.77
2019-04-04T12:25:57.972Z,6.60
2019-04-04T12:28:30.343Z,5.37
2019-04-04T12:31:02.211Z,9.83
2019-04-04T12:33:36.401Z,5.23
2019-04-04T12:36:08.691Z,7.43
2019-04-04T12:38:40.753Z,4.80
2019-04-04T12:41:12.796Z,5.53
2019-04-04T12:43:44.788Z,4.50
2019-04-04T12:46:17.524Z,5.90
2019-04-04T12:48:49.445Z,4.43
2019-04-04T12:51:21.504Z,4.83
2019-04-04T12:53:58.271Z,4.53
2019-04-04T12:56:30.483Z,5.20
2019-04-04T12:59:02.452Z,5.30
2019-04-04T13:01:34.264Z,3.97
2019-04-04T13:04:09.765Z,3.57
2019-04-04T13:06:51.874Z,4.23
2019-04-04T13:09:24.384Z,3.87
2019-04-04T13:11:56.752Z,4.10
2019-04-04T13:14:28.923Z,6.33
2019-04-04T13:17:00.963Z,4.47
2019-04-04T13:19:32.663Z,4.63
2019-04-04T13:22:04.418Z,4.37
2019-04-04T13:24:36.164Z,4.40
2019-04-04T13:27:08.190Z,3.37
2019-04-04T13:29:45.157Z,4.97
2019-04-04T13:32:17.437Z,3.57
2019-04-04T13:34:58.673Z,3.60
2019-04-04T13:37:22.799Z,5.10
2019-04-04T13:39:54.653Z,4.73
2019-04-04T13:42:28.142Z,2.50
2019-04-04T13:45:00.027Z,4.13
2019-04-04T13:47:32.435Z,3.77
2019-04-04T13:50:06.585Z,3.10
2019-04-04T13:52:38.911Z,6.23
2019-04-04T13:55:10.769Z,3.00
2019-04-04T13:57:47.290Z,4.67
2019-04-04T14:00:17.914Z,4.00
2019-04-04T14:02:49.734Z,1.83
2019-04-04T14:05:21.396Z,4.10
2019-04-04T14:07:53.865Z,3.70
2019-04-04T14:10:25.992Z,3.73
2019-04-04T14:12:59.146Z,4.67
2019-04-04T14:15:31.266Z,2.50
2019-04-04T14:18:07.708Z,2.10
2019-04-04T14:20:38.876Z,5.60
2019-04-04T14:23:10.743Z,3.47
2019-04-04T14:25:42.667Z,2.07
2019-04-04T14:28:16.097Z,2.47
2019-04-04T14:30:50.791Z,2.23
2019-04-04T14:33:24.168Z,2.60
2019-04-04T14:36:00.909Z,2.87
2019-04-04T14:38:35.995Z,3.20
2019-04-04T14:41:11.605Z,2.63
2019-04-04T14:43:41.702Z,3.37
2019-04-04T14:46:15.136Z,1.20
2019-04-04T14:48:46.982Z,2.37
2019-04-04T14:51:18.819Z,2.67
2019-04-04T14:53:50.857Z,6.13
2019-04-04T14:56:22.712Z,2.33
2019-04-04T14:58:57.781Z,3.27
2019-04-04T15:01:29.705Z,2.23
2019-04-04T15:04:01.994Z,1.93
2019-04-04T15:06:35.409Z,2.87
2019-04-04T15:09:09.793Z,1.77
2019-04-04T15:11:41.877Z,2.13
2019-04-04T15:14:15.184Z,2.27
2019-04-04T15:16:47.026Z,1.83
2019-04-04T15:19:19.053Z,1.93
2019-04-04T15:21:59.194Z,1.30
2019-04-04T15:24:33.090Z,6.77
2019-04-04T15:27:05.315Z,2.33
2019-04-04T15:29:36.964Z,1.70
2019-04-04T15:32:26.237Z,2.13
2019-04-04T15:34:57.844Z,2.10
2019-04-04T15:37:29.901Z,1.17
2019-04-04T15:40:01.638Z,2.00
2019-04-04T15:42:33.722Z,3.03
2019-04-04T15:45:07.686Z,2.47
2019-04-04T15:47:39.316Z,1.83
2019-04-04T15:50:11.167Z,2.47
2019-04-04T15:52:44.582Z,2.70
2019-04-04T15:55:16.481Z,1.30
2019-04-04T15:57:48.283Z,2.27
2019-04-04T16:00:20.299Z,3.77
2019-04-04T16:02:52.376Z,2.23
2019-04-04T16:05:24.792Z,2.50
2019-04-04T16:07:56.610Z,2.70
2019-04-04T16:10:48.219Z,2.33
2019-04-04T16:13:17.612Z,2.23
2019-04-04T16:15:50.639Z,3.43
2019-04-04T16:18:22.601Z,3.10
2019-04-04T16:21:12.170Z,5.07
2019-04-04T16:23:43.829Z,3.23
2019-04-04T16:26:16.005Z,3.23
2019-04-04T16:28:47.708Z,5.30
2019-04-04T16:31:19.551Z,2.87
2019-04-04T16:33:51.854Z,8.03
2019-04-04T16:36:23.645Z,4.50
2019-04-04T16:38:55.357Z,4.77
2019-04-04T16:41:27.220Z,6.00
2019-04-04T16:43:59.846Z,3.43
2019-04-04T16:46:31.602Z,6.73
2019-04-04T16:49:03.340Z,4.47
2019-04-04T16:51:35.371Z,7.57
2019-04-04T16:54:07.097Z,7.30
2019-04-04T16:56:39.257Z,3.73
2019-04-04T16:59:10.946Z,4.37
2019-04-04T17:01:43.077Z,4.17
2019-04-04T17:04:14.789Z,6.07
2019-04-04T17:06:47.135Z,4.00
2019-04-04T17:09:19.166Z,3.23
2019-04-04T17:11:51.127Z,7.00
2019-04-04T17:14:23.067Z,7.13
2019-04-04T17:16:54.883Z,3.43
2019-04-04T17:19:26.651Z,4.07
2019-04-04T17:21:58.380Z,5.23
2019-04-04T17:24:29.994Z,3.67
2019-04-04T17:27:02.382Z,3.87
2019-04-04T17:29:38.830Z,3.97
2019-04-04T17:32:12.158Z,4.80
2019-04-04T17:34:44.265Z,8.80
2019-04-04T17:37:16.612Z,5.63
2019-04-04T17:39:50.237Z,6.00
2019-04-04T17:42:30.260Z,4.37
2019-04-04T17:44:55.897Z,7.07
2019-04-04T17:47:30.510Z,7.23
2019-04-04T17:50:02.045Z,4.27
2019-04-04T17:52:34.272Z,7.57
2019-04-04T17:55:07.482Z,7.67
2019-04-04T17:57:39.752Z,5.93
2019-04-04T18:00:12.020Z,4.63
2019-04-04T18:02:44.067Z,4.30
2019-04-04T18:05:15.810Z,9.00
2019-04-04T18:07:47.898Z,5.00
2019-04-04T18:10:21.103Z,7.50
2019-04-04T18:12:52.819Z,4.63
2019-04-04T18:15:27.733Z,5.17
2019-04-04T18:17:59.422Z,5.13
2019-04-04T18:20:36.317Z,6.73
2019-04-04T18:23:08.208Z,7.17
2019-04-04T18:25:40.068Z,5.73
2019-04-04T18:28:13.376Z,8.40
2019-04-04T18:31:06.591Z,14.00
2019-04-04T18:36:10.928Z,13.72
2019-04-04T18:38:44.683Z,14.13
2019-04-04T18:41:25.973Z,18.10
2019-04-04T18:43:59.830Z,20.40
2019-04-04T18:46:39.634Z,32.00
2019-04-04T18:49:11.142Z,31.00
2019-04-04T18:51:43.113Z,34.70
2019-04-04T18:54:15.346Z,33.47
2019-04-04T18:56:47.139Z,41.30
2019-04-04T18:59:18.880Z,31.73
2019-04-04T19:01:50.659Z,33.00
2019-04-04T19:04:22.374Z,33.37
2019-04-04T19:06:54.591Z,35.87
2019-04-04T19:09:29.296Z,28.13
2019-04-04T19:12:04.932Z,33.30
2019-04-04T19:14:40.437Z,25.43
2019-04-04T19:17:13.871Z,25.43
2019-04-04T19:19:45.975Z,22.13
2019-04-04T19:22:17.761Z,30.60
2019-04-04T19:24:49.606Z,19.87
2019-04-04T19:27:21.432Z,22.67
2019-04-04T19:29:53.229Z,21.20
2019-04-04T19:32:28.107Z,23.03
2019-04-04T19:35:08.727Z,22.00
2019-04-04T19:37:40.493Z,19.80
2019-04-04T19:43:26.747Z,21.53
2019-04-04T19:46:36.450Z,17.87
2019-04-04T19:48:41.307Z,22.50
2019-04-04T19:51:13.305Z,20.03
2019-04-04T19:53:45.219Z,24.00
2019-04-04T19:56:17.051Z,22.57
2019-04-04T19:58:51.063Z,23.20
2019-04-04T20:01:25.587Z,16.07
2019-04-04T20:03:56.663Z,22.47
2019-04-04T20:06:30.652Z,16.37
2019-04-04T20:09:02.920Z,19.60
2019-04-04T20:11:38.873Z,24.53
2019-04-04T20:14:08.360Z,18.57
2019-04-04T20:16:40.075Z,23.80
2019-04-04T20:19:12.498Z,19.37
2019-04-04T20:21:44.133Z,20.80
2019-04-04T20:24:16.087Z,21.93
2019-04-04T20:26:47.974Z,21.63
2019-04-04T20:29:19.772Z,14.93
2019-04-04T20:31:51.502Z,16.03
2019-04-04T20:34:23.344Z,15.23
2019-04-04T20:36:54.946Z,9.60
2019-04-04T20:39:28.667Z,15.67
2019-04-04T20:42:00.805Z,12.50
2019-04-04T20:44:32.549Z,11.50
2019-04-04T20:47:04.211Z,14.33
2019-04-04T20:49:36.077Z,10.73
2019-04-04T20:52:07.779Z,9.87
2019-04-04T20:54:39.659Z,13.70
2019-04-04T20:57:11.510Z,10.33
2019-04-04T20:59:44.648Z,9.33
2019-04-04T21:02:16.392Z,12.13
2019-04-04T21:04:48.054Z,10.93
2019-04-04T21:07:21.474Z,10.23
2019-04-04T21:09:53.143Z,10.30
2019-04-04T21:12:26.478Z,12.93
2019-04-04T21:14:58.288Z,7.60
2019-04-04T21:17:33.535Z,6.37
2019-04-04T21:20:06.962Z,8.63
2019-04-04T21:22:39.018Z,9.10
2019-04-04T21:25:11.528Z,8.40
2019-04-04T21:27:43.648Z,9.10
2019-04-04T21:30:15.515Z,7.73
2019-04-04T21:32:47.273Z,8.43
2019-04-04T21:35:19.054Z,10.10
2019-04-04T21:37:51.160Z,8.43
2019-04-04T21:40:22.916Z,10.93
2019-04-04T21:42:54.658Z,9.47
2019-04-04T21:45:26.394Z,10.73
2019-04-04T21:47:58.113Z,9.17
2019-04-04T21:50:29.841Z,7.43
2019-04-04T21:53:02.006Z,7.63
2019-04-04T21:55:33.677Z,8.67
2019-04-04T21:58:05.579Z,7.70
2019-04-04T22:00:39.181Z,7.87
2019-04-04T22:03:11.279Z,9.83
2019-04-04T22:05:42.925Z,8.33
2019-04-04T22:08:18.883Z,8.77
2019-04-04T22:10:50.921Z,6.23
2019-04-04T22:13:22.713Z,6.30
2019-04-04T22:15:54.549Z,8.20
2019-04-04T22:18:30.463Z,6.80
2019-04-04T22:21:02.427Z,8.37
2019-04-04T22:23:35.105Z,8.17
2019-04-04T22:26:06.821Z,10.07
2019-04-04T22:28:38.946Z,6.70
2019-04-04T22:31:11.020Z,6.20
2019-04-04T22:33:42.855Z,6.27
2019-04-04T22:36:14.743Z,7.40
2019-04-04T22:38:46.608Z,10.00
2019-04-04T22:41:18.893Z,6.57
2019-04-04T22:44:02.961Z,6.60
2019-04-04T22:46:24.582Z,8.27
2019-04-04T22:48:56.630Z,8.80
2019-04-04T22:51:28.980Z,6.47
2019-04-04T22:54:00.861Z,6.20
2019-04-04T22:56:32.444Z,6.60
2019-04-04T22:59:04.342Z,6.63
2019-04-04T23:01:36.145Z,6.30
2019-04-04T23:04:08.132Z,5.53
2019-04-04T23:06:40.246Z,6.20
2019-04-04T23:09:12.360Z,4.87
2019-04-04T23:11:44.256Z,6.67
2019-04-04T23:14:15.922Z,7.60
2019-04-04T23:16:47.826Z,5.90
2019-04-04T23:19:19.567Z,6.80
2019-04-04T23:21:51.311Z,6.60
2019-04-04T23:24:23.231Z,7.23
2019-04-04T23:26:55.278Z,4.53
2019-04-04T23:29:26.972Z,7.90
2019-04-04T23:31:58.944Z,6.33
2019-04-04T23:34:30.738Z,5.60
2019-04-04T23:37:02.493Z,6.83
2019-04-04T23:39:34.773Z,6.43
2019-04-04T23:42:06.614Z,4.73
2019-04-04T23:44:38.464Z,4.63
2019-04-04T23:47:10.491Z,6.10
2019-04-04T23:49:42.129Z,5.07
2019-04-04T23:52:14.248Z,7.03
2019-04-04T23:54:46.786Z,5.80
2019-04-04T23:57:19.063Z,5.93
2019-04-04T23:59:50.811Z,5.33
